Hauptseite
METAR-TAF:

METAR-TAF

Flughäfen :

Fliegerhorst Nörvenich

Nörvenich, Deutschland

Breite: 50-50N, Länge: 006-40E, Höhe: 118 m

Beobachtung

Neuester Wetterbericht von vor 58 Minuten, um 05:20 UTC
Wind 2 kt aus Südwest
Temperatur -2°C
Luftfeuchtigkeit 93%
Luftdruck 1033 hPa
Sichtweite 10 km oder mehr

METAR: ETNN 010520Z 23002KT 9999 M02/M03 Q1033 BLU+BLU+

Zeit: 07:18 (06:18 UTC)

Prognose

Neuester Wetterbericht von vor 1 Stunde und 5 Minuten, um 05:13 UTC
Gültige Prognose vom 01 um 06 UTC bis 01 um 15 UTC
Wind 5 kt aus Ost
Sichtweite 10 km oder mehr
Himmel klar
Wahrscheinlichkeit 30%
vom 01 um 06 UTC bis 01 um 08 UTC
Wind 3 kt aus unterschiedlichen Richtungen
Sichtweite: 0500 m
Durchbrochene Bewölkung in der Höhe von 200 ft
Gefrierender Nebel

TAF: ETNN 010513Z 0106/0115 10005KT 9999 NSW SKC PROB30 0106/0108 VRB03KT 0500 FZFG BKN002 BY ETGL

Wetterbeobachtungen und Prognosen von mehr als 4000 Flughäfen (METAR und TAF Bericht).

Die verfügbaren Stationen werden durch gelbe und rote Markierungen auf der Karte dargestellt.

Führen Sie die Maus auf sie, um den Namen der Station zu sehen.

Darauf klicken, um die Beobachtung von Wetterbeobachtungen und Prognosen zu sehen.

Um die Karte zu ändern : klicken Sie auf den grünen Tasten mit einem schwarzen Kreuz Zum Vergrößern, auf den grünen Button mit einem Gedankenstrich zu verkleinern, oder auf die grünen Pfeile für benachbarte Karten.


METAR-TAF: